createdAt,value
2022-08-22T00:01:56.858Z,15.36
2022-08-22T00:02:44.409Z,16.42
2022-08-22T00:03:11.562Z,16.16
2022-08-22T00:04:41.517Z,15.36
2022-08-22T00:07:35.168Z,15.28
2022-08-22T00:10:11.497Z,15.34
2022-08-22T00:13:03.085Z,15.38
2022-08-22T00:15:44.452Z,15.33
2022-08-22T00:18:29.845Z,15.34
2022-08-22T00:21:16.583Z,15.32
2022-08-22T00:24:10.731Z,15.30
2022-08-22T00:26:45.624Z,15.32
2022-08-22T00:29:55.189Z,15.31
2022-08-22T00:32:38.644Z,15.27
2022-08-22T00:35:12.892Z,15.29
2022-08-22T00:37:39.368Z,15.32
2022-08-22T00:40:31.048Z,15.34
2022-08-22T00:43:24.747Z,15.33
2022-08-22T00:46:09.379Z,15.32
2022-08-22T00:48:47.149Z,15.32
2022-08-22T00:51:31.390Z,15.28
2022-08-22T00:54:04.470Z,15.26
2022-08-22T00:57:01.554Z,15.30
2022-08-22T00:59:48.148Z,15.30
2022-08-22T01:02:34.624Z,15.29
2022-08-22T01:05:17.145Z,15.24
2022-08-22T01:08:02.870Z,15.23
2022-08-22T01:10:47.797Z,15.25
2022-08-22T01:13:20.641Z,15.24
2022-08-22T01:15:51.077Z,15.21
2022-08-22T01:18:40.962Z,15.24
2022-08-22T01:21:13.246Z,15.32
2022-08-22T01:24:00.997Z,15.31
2022-08-22T01:26:40.466Z,15.27
2022-08-22T01:29:36.771Z,15.21
2022-08-22T01:32:42.153Z,15.21
2022-08-22T01:35:29.478Z,15.19
2022-08-22T01:38:12.813Z,15.11
2022-08-22T01:41:10.521Z,15.11
2022-08-22T01:44:13.725Z,15.11
2022-08-22T01:47:05.994Z,15.05
2022-08-22T01:49:39.694Z,15.04
2022-08-22T01:52:19.753Z,15.00
2022-08-22T01:54:56.364Z,15.01
2022-08-22T01:57:24.257Z,14.97
2022-08-22T01:59:56.030Z,14.98
2022-08-22T02:02:41.325Z,14.97
2022-08-22T02:05:16.728Z,14.94
2022-08-22T02:08:15.530Z,14.90
2022-08-22T02:11:00.146Z,14.88
2022-08-22T02:13:48.409Z,14.86
2022-08-22T02:16:32.058Z,14.83
2022-08-22T02:19:16.667Z,14.80
2022-08-22T02:21:53.369Z,14.82
2022-08-22T02:24:44.945Z,14.78
2022-08-22T02:27:17.652Z,14.68
2022-08-22T02:29:57.844Z,14.63
2022-08-22T02:32:47.668Z,14.62
2022-08-22T02:35:39.811Z,14.55
2022-08-22T02:38:20.279Z,14.51
2022-08-22T02:41:05.746Z,14.48
2022-08-22T02:43:59.589Z,14.45
2022-08-22T02:46:47.508Z,14.39
2022-08-22T02:49:28.104Z,14.31
2022-08-22T02:52:14.760Z,14.27
2022-08-22T02:55:04.469Z,14.22
2022-08-22T02:57:42.269Z,14.24
2022-08-22T03:00:31.659Z,14.36
2022-08-22T03:02:59.394Z,14.31
2022-08-22T03:05:38.285Z,14.27
2022-08-22T03:08:12.977Z,14.25
2022-08-22T03:10:45.746Z,14.19
2022-08-22T03:13:24.376Z,14.13
2022-08-22T03:16:04.333Z,14.06
2022-08-22T03:18:44.755Z,14.00
2022-08-22T03:21:50.058Z,13.96
2022-08-22T03:24:33.327Z,13.96
2022-08-22T03:27:31.420Z,13.92
2022-08-22T03:30:28.508Z,13.88
2022-08-22T03:32:59.451Z,13.86
2022-08-22T03:35:34.512Z,13.88
2022-08-22T03:38:18.605Z,13.78
2022-08-22T03:41:02.628Z,13.73
2022-08-22T03:43:47.729Z,13.78
2022-08-22T03:46:23.497Z,13.69
2022-08-22T03:49:06.339Z,13.70
2022-08-22T03:51:51.397Z,13.67
2022-08-22T03:54:37.791Z,13.59
2022-08-22T03:57:07.467Z,13.55
2022-08-22T04:00:06.837Z,13.53
2022-08-22T04:02:51.950Z,13.49
2022-08-22T04:06:01.752Z,13.46
2022-08-22T04:08:51.858Z,13.41
2022-08-22T04:11:24.437Z,13.36
2022-08-22T04:14:48.896Z,13.30
2022-08-22T04:17:36.684Z,13.26
2022-08-22T04:20:40.337Z,13.24
2022-08-22T04:23:13.002Z,13.18
2022-08-22T04:25:50.797Z,13.18
2022-08-22T04:28:32.969Z,13.12
2022-08-22T04:31:12.161Z,13.11
2022-08-22T04:34:16.496Z,13.06
2022-08-22T04:36:48.213Z,13.03
2022-08-22T04:39:18.541Z,13.03
2022-08-22T04:41:46.718Z,12.96
2022-08-22T04:44:21.318Z,13.01
2022-08-22T04:47:10.217Z,13.03
2022-08-22T04:49:57.042Z,13.01
2022-08-22T04:52:35.854Z,13.02
2022-08-22T04:55:26.613Z,13.02
2022-08-22T04:58:13.606Z,13.01
2022-08-22T05:00:51.966Z,12.98
2022-08-22T05:03:22.102Z,12.97
2022-08-22T05:05:52.989Z,12.94
2022-08-22T05:08:25.277Z,12.93
2022-08-22T05:10:52.418Z,12.93
2022-08-22T05:13:30.928Z,12.97
2022-08-22T05:16:03.454Z,12.97
2022-08-22T05:18:38.547Z,12.94
2022-08-22T05:21:09.064Z,12.95
2022-08-22T05:23:43.070Z,12.95
2022-08-22T05:26:13.536Z,12.97
2022-08-22T05:28:53.261Z,12.97
2022-08-22T05:31:28.735Z,13.05
2022-08-22T05:34:02.578Z,13.01
2022-08-22T05:36:35.146Z,13.02
2022-08-22T05:39:10.637Z,13.01
2022-08-22T05:41:39.303Z,13.05
2022-08-22T05:44:17.364Z,13.11
2022-08-22T05:46:48.619Z,13.18
2022-08-22T05:49:47.546Z,13.27
2022-08-22T05:52:56.684Z,13.34
2022-08-22T05:55:37.283Z,13.37
2022-08-22T05:58:36.712Z,13.42
2022-08-22T06:01:37.944Z,13.46
2022-08-22T06:04:14.321Z,13.47
2022-08-22T06:06:55.170Z,13.49
2022-08-22T06:09:47.785Z,13.52
2022-08-22T06:12:21.706Z,13.56
2022-08-22T06:15:12.034Z,13.66
2022-08-22T06:17:49.399Z,13.74
2022-08-22T06:20:32.219Z,13.85
2022-08-22T06:23:02.396Z,13.88
2022-08-22T06:25:35.527Z,13.98
2022-08-22T06:28:07.936Z,14.07
2022-08-22T06:30:37.970Z,14.17
2022-08-22T06:33:12.844Z,14.27
2022-08-22T06:36:07.376Z,14.39
2022-08-22T06:39:02.424Z,14.50
2022-08-22T06:41:32.718Z,14.59
2022-08-22T06:44:01.749Z,14.71
2022-08-22T06:46:31.726Z,14.80
2022-08-22T06:49:00.366Z,14.89
2022-08-22T06:51:29.169Z,14.96
2022-08-22T06:54:01.330Z,15.02
2022-08-22T06:56:35.548Z,15.12
2022-08-22T06:59:09.312Z,15.23
2022-08-22T07:01:51.731Z,15.34
2022-08-22T07:04:23.915Z,15.46
2022-08-22T07:06:51.339Z,15.59
2022-08-22T07:09:38.360Z,15.68
2022-08-22T07:12:14.727Z,15.82
2022-08-22T07:14:44.322Z,15.94
2022-08-22T07:17:18.502Z,16.06
2022-08-22T07:20:24.077Z,16.23
2022-08-22T07:23:04.024Z,16.36
2022-08-22T07:25:32.271Z,16.51
2022-08-22T07:28:36.954Z,16.69
2022-08-22T07:31:46.588Z,16.89
2022-08-22T07:34:31.959Z,17.01
2022-08-22T07:37:05.698Z,17.13
2022-08-22T07:39:38.406Z,17.25
2022-08-22T07:42:28.543Z,17.38
2022-08-22T07:45:03.088Z,17.53
2022-08-22T07:47:49.732Z,17.62
2022-08-22T07:50:28.589Z,17.73
2022-08-22T07:53:01.931Z,17.85
2022-08-22T07:55:28.680Z,17.94
2022-08-22T07:58:04.095Z,18.03
2022-08-22T08:00:32.404Z,18.10
2022-08-22T08:03:04.596Z,18.19
2022-08-22T08:05:34.285Z,18.27
2022-08-22T08:08:08.808Z,18.35
2022-08-22T08:10:42.460Z,18.46
2022-08-22T08:13:19.305Z,18.52
2022-08-22T08:15:46.130Z,18.61
2022-08-22T08:18:19.302Z,18.68
2022-08-22T08:20:54.630Z,18.75
2022-08-22T08:23:23.672Z,18.82
2022-08-22T08:25:57.664Z,18.93
2022-08-22T08:28:37.699Z,18.99
2022-08-22T08:31:31.458Z,19.04
2022-08-22T08:34:05.187Z,19.14
2022-08-22T08:36:43.131Z,19.21
2022-08-22T08:39:21.323Z,19.23
2022-08-22T08:42:00.060Z,19.31
2022-08-22T08:44:46.793Z,19.33
2022-08-22T08:47:25.036Z,19.41
2022-08-22T08:50:07.984Z,19.46
2022-08-22T08:52:52.970Z,19.55
2022-08-22T08:55:24.951Z,19.60
2022-08-22T08:58:22.645Z,19.71
2022-08-22T09:01:00.660Z,19.79
2022-08-22T09:03:57.422Z,19.86
2022-08-22T09:06:42.365Z,19.94
2022-08-22T09:09:32.230Z,20.04
2022-08-22T09:12:07.565Z,20.14
2022-08-22T09:14:52.313Z,20.28
2022-08-22T09:17:27.966Z,20.38
2022-08-22T09:20:17.730Z,20.53
2022-08-22T09:23:34.913Z,20.71
2022-08-22T09:26:08.774Z,20.83
2022-08-22T09:28:57.958Z,20.94
2022-08-22T09:31:48.062Z,21.00
2022-08-22T09:34:42.718Z,21.05
2022-08-22T09:37:16.864Z,20.99
2022-08-22T09:43:14.047Z,21.31
2022-08-22T09:46:09.678Z,21.31
2022-08-22T09:48:39.493Z,21.41
2022-08-22T09:51:31.966Z,21.56
2022-08-22T09:54:20.726Z,21.59
2022-08-22T09:56:55.934Z,21.65
2022-08-22T09:59:45.775Z,21.64
2022-08-22T10:02:26.406Z,21.59
2022-08-22T10:05:40.675Z,21.66
2022-08-22T10:08:35.193Z,21.71
2022-08-22T10:11:28.874Z,21.72
2022-08-22T10:14:22.202Z,21.72
2022-08-22T10:17:09.202Z,21.78
2022-08-22T10:19:42.185Z,21.65
2022-08-22T10:22:39.304Z,21.62
2022-08-22T10:25:34.260Z,21.71
2022-08-22T10:28:15.915Z,22.05
2022-08-22T10:30:59.416Z,22.04
2022-08-22T10:33:33.230Z,22.01
2022-08-22T10:36:11.688Z,21.93
2022-08-22T10:38:46.927Z,21.91
2022-08-22T10:41:19.349Z,21.90
2022-08-22T10:44:16.522Z,21.93
2022-08-22T10:46:55.290Z,21.82
2022-08-22T10:49:51.317Z,22.20
2022-08-22T10:52:45.554Z,22.75
2022-08-22T10:55:24.512Z,23.14
2022-08-22T10:58:10.994Z,23.46
2022-08-22T11:01:00.490Z,23.65
2022-08-22T11:03:47.037Z,23.83
2022-08-22T11:06:22.078Z,24.15
2022-08-22T11:09:14.134Z,24.29
2022-08-22T11:11:54.197Z,24.07
2022-08-22T11:14:53.560Z,23.79
2022-08-22T11:17:35.688Z,23.45
2022-08-22T11:20:15.016Z,23.41
2022-08-22T11:23:12.508Z,23.41
2022-08-22T11:25:52.371Z,23.43
2022-08-22T11:28:33.348Z,23.24
2022-08-22T11:31:47.368Z,23.25
2022-08-22T11:34:55.818Z,23.18
2022-08-22T11:37:56.507Z,23.08
2022-08-22T11:40:42.736Z,22.97
2022-08-22T11:43:12.030Z,23.05
2022-08-22T11:45:51.863Z,22.77
2022-08-22T11:48:31.063Z,22.78
2022-08-22T11:51:00.655Z,22.87
2022-08-22T11:53:39.609Z,23.60
2022-08-22T11:56:12.850Z,24.10
2022-08-22T11:58:59.429Z,24.44
2022-08-22T12:01:55.341Z,24.78
2022-08-22T12:04:33.948Z,25.18
2022-08-22T12:07:22.167Z,25.31
2022-08-22T12:09:55.109Z,25.53
2022-08-22T12:12:24.691Z,25.23
2022-08-22T12:15:01.037Z,25.47
2022-08-22T12:18:21.751Z,25.32
2022-08-22T12:21:16.130Z,25.01
2022-08-22T12:23:50.427Z,24.77
2022-08-22T12:26:34.074Z,24.38
2022-08-22T12:29:20.392Z,24.12
2022-08-22T12:32:06.537Z,24.13
2022-08-22T12:34:48.758Z,24.21
2022-08-22T12:37:28.313Z,24.20
2022-08-22T12:40:21.039Z,24.20
2022-08-22T12:43:05.055Z,24.55
2022-08-22T12:45:56.762Z,24.42
2022-08-22T12:48:54.578Z,24.20
2022-08-22T12:51:24.521Z,24.21
2022-08-22T12:54:21.983Z,24.04
2022-08-22T12:57:01.720Z,23.96
2022-08-22T12:59:32.606Z,23.89
2022-08-22T13:02:15.178Z,23.96
2022-08-22T13:04:50.678Z,24.00
2022-08-22T13:07:34.586Z,24.14
2022-08-22T13:10:32.492Z,24.13
2022-08-22T13:13:00.458Z,24.20
2022-08-22T13:15:37.186Z,24.46
2022-08-22T13:18:30.631Z,25.01
2022-08-22T13:21:02.755Z,25.64
2022-08-22T13:23:42.036Z,26.27
2022-08-22T13:26:32.867Z,26.52
2022-08-22T13:29:26.940Z,26.87
2022-08-22T13:32:01.528Z,27.58
2022-08-22T13:34:49.021Z,28.36
2022-08-22T13:37:24.750Z,28.12
2022-08-22T13:39:58.820Z,27.84
2022-08-22T13:42:30.152Z,28.23
2022-08-22T13:45:02.522Z,28.11
2022-08-22T13:47:32.499Z,28.24
2022-08-22T13:50:11.238Z,28.56
2022-08-22T13:52:49.299Z,28.59
2022-08-22T13:55:27.621Z,28.77
2022-08-22T13:58:11.366Z,28.74
2022-08-22T14:01:25.220Z,29.02
2022-08-22T14:04:28.738Z,28.89
2022-08-22T14:07:29.955Z,28.58
2022-08-22T14:10:05.117Z,29.14
2022-08-22T14:12:50.921Z,28.29
2022-08-22T14:15:34.005Z,27.69
2022-08-22T14:18:31.608Z,27.61
2022-08-22T14:21:27.322Z,27.52
2022-08-22T14:23:59.398Z,28.17
2022-08-22T14:26:35.739Z,28.80
2022-08-22T14:29:07.778Z,28.93
2022-08-22T14:31:35.386Z,28.22
2022-08-22T14:34:10.556Z,27.89
2022-08-22T14:36:58.730Z,27.60
2022-08-22T14:39:42.889Z,27.73
2022-08-22T14:42:26.568Z,29.05
2022-08-22T14:44:53.131Z,29.41
2022-08-22T14:47:55.492Z,29.90
2022-08-22T14:50:43.733Z,30.71
2022-08-22T14:53:25.211Z,31.09
2022-08-22T14:56:04.418Z,31.36
2022-08-22T14:58:36.469Z,31.52
2022-08-22T15:01:16.749Z,31.70
2022-08-22T15:03:50.622Z,32.11
2022-08-22T15:06:35.855Z,32.42
2022-08-22T15:09:23.029Z,32.55
2022-08-22T15:11:49.663Z,31.71
2022-08-22T15:14:42.627Z,32.01
2022-08-22T15:17:10.846Z,32.12
2022-08-22T15:19:44.398Z,31.59
2022-08-22T15:22:19.507Z,31.14
2022-08-22T15:25:02.603Z,31.59
2022-08-22T15:27:32.507Z,32.20
2022-08-22T15:30:02.581Z,32.47
2022-08-22T15:32:32.491Z,31.86
2022-08-22T15:35:13.781Z,31.81
2022-08-22T15:38:28.170Z,31.81
2022-08-22T15:40:56.650Z,32.48
2022-08-22T15:43:28.885Z,32.90
2022-08-22T15:46:53.697Z,31.84
2022-08-22T15:49:20.166Z,31.00
2022-08-22T15:52:11.165Z,30.19
2022-08-22T15:54:46.881Z,29.60
2022-08-22T15:57:19.016Z,29.10
2022-08-22T15:59:53.670Z,28.58
2022-08-22T16:02:27.950Z,28.36
2022-08-22T16:05:10.370Z,28.12
2022-08-22T16:07:48.671Z,28.01
2022-08-22T16:10:24.358Z,27.91
2022-08-22T16:13:15.774Z,27.77
2022-08-22T16:15:52.646Z,27.44
2022-08-22T16:18:34.426Z,27.16
2022-08-22T16:21:03.825Z,26.99
2022-08-22T16:23:50.812Z,26.81
2022-08-22T16:26:24.306Z,26.66
2022-08-22T16:29:10.294Z,26.53
2022-08-22T16:31:48.530Z,26.35
2022-08-22T16:34:18.157Z,26.21
2022-08-22T16:36:44.857Z,26.13
2022-08-22T16:39:20.402Z,26.13
2022-08-22T16:41:48.417Z,26.11
2022-08-22T16:44:30.163Z,26.05
2022-08-22T16:47:19.295Z,25.92
2022-08-22T16:49:51.537Z,25.71
2022-08-22T16:52:26.826Z,25.56
2022-08-22T16:55:00.101Z,25.49
2022-08-22T16:57:29.422Z,25.47
2022-08-22T17:00:08.901Z,25.45
2022-08-22T17:03:00.152Z,25.42
2022-08-22T17:05:42.230Z,25.26
2022-08-22T17:08:32.240Z,25.03
2022-08-22T17:11:10.625Z,24.90
2022-08-22T17:14:07.920Z,24.86
2022-08-22T17:16:41.717Z,24.74
2022-08-22T17:19:20.917Z,24.68
2022-08-22T17:21:57.178Z,24.58
2022-08-22T17:24:46.114Z,24.46
2022-08-22T17:27:28.808Z,24.28
2022-08-22T17:30:11.717Z,24.11
2022-08-22T17:33:09.047Z,24.01
2022-08-22T17:35:44.306Z,24.02
2022-08-22T17:38:44.050Z,24.00
2022-08-22T17:41:22.084Z,23.88
2022-08-22T17:44:13.199Z,23.90
2022-08-22T17:46:55.214Z,23.85
2022-08-22T17:49:46.598Z,23.87
2022-08-22T17:52:22.212Z,23.79
2022-08-22T17:54:52.500Z,23.74
2022-08-22T17:57:47.066Z,23.61
2022-08-22T18:00:24.245Z,23.47
2022-08-22T18:02:57.974Z,23.41
2022-08-22T18:05:31.468Z,23.34
2022-08-22T18:08:37.389Z,23.28
2022-08-22T18:11:07.790Z,23.25
2022-08-22T18:14:04.974Z,23.07
2022-08-22T18:16:43.764Z,23.01
2022-08-22T18:19:10.216Z,22.95
2022-08-22T18:21:51.590Z,22.89
2022-08-22T18:24:33.225Z,22.90
2022-08-22T18:27:34.050Z,22.84
2022-08-22T18:30:13.908Z,22.78
2022-08-22T18:32:51.325Z,22.79
2022-08-22T18:35:53.872Z,22.74
2022-08-22T18:38:30.120Z,22.70
2022-08-22T18:41:26.035Z,22.65
2022-08-22T18:43:53.326Z,22.59
2022-08-22T18:46:38.038Z,22.51
2022-08-22T18:49:15.515Z,22.43
2022-08-22T18:51:43.039Z,22.39
2022-08-22T18:54:12.466Z,22.33
2022-08-22T18:57:06.973Z,22.36
2022-08-22T18:59:46.594Z,22.36
2022-08-22T19:03:00.955Z,22.33
2022-08-22T19:05:49.566Z,22.28
2022-08-22T19:08:49.310Z,22.17
2022-08-22T19:11:45.589Z,22.15
2022-08-22T19:14:30.657Z,22.08
2022-08-22T19:17:27.257Z,21.92
2022-08-22T19:20:20.218Z,21.89
2022-08-22T19:22:51.125Z,21.85
2022-08-22T19:25:27.460Z,21.87
2022-08-22T19:27:56.936Z,21.85
2022-08-22T19:30:45.002Z,21.82
2022-08-22T19:33:19.589Z,21.78
2022-08-22T19:35:54.107Z,21.75
2022-08-22T19:38:53.756Z,21.66
2022-08-22T19:41:39.449Z,21.44
2022-08-22T19:44:32.673Z,21.14
2022-08-22T19:47:08.614Z,20.94
2022-08-22T19:49:39.333Z,20.76
2022-08-22T19:52:24.028Z,20.62
2022-08-22T19:55:21.397Z,20.61
2022-08-22T19:58:33.193Z,20.43
2022-08-22T20:01:28.566Z,20.32
2022-08-22T20:04:36.814Z,20.13
2022-08-22T20:07:14.778Z,20.12
2022-08-22T20:10:08.387Z,20.12
2022-08-22T20:12:54.177Z,20.06
2022-08-22T20:15:23.901Z,19.93
2022-08-22T20:20:58.357Z,19.65
2022-08-22T20:23:30.031Z,19.53
2022-08-22T20:25:57.974Z,19.46
2022-08-22T20:28:34.433Z,19.43
2022-08-22T20:31:06.016Z,19.31
2022-08-22T20:33:36.876Z,19.30
2022-08-22T20:36:16.728Z,19.19
2022-08-22T20:39:01.672Z,19.08
2022-08-22T20:41:40.432Z,19.04
2022-08-22T20:44:24.154Z,18.96
2022-08-22T20:46:55.922Z,18.87
2022-08-22T20:49:30.208Z,18.75
2022-08-22T20:51:59.498Z,18.71
2022-08-22T20:54:29.798Z,18.68
2022-08-22T20:56:58.380Z,18.62
2022-08-22T20:59:38.271Z,18.64
2022-08-22T21:02:18.000Z,18.54
2022-08-22T21:04:50.860Z,18.46
2022-08-22T21:07:27.057Z,18.46
2022-08-22T21:10:16.739Z,18.39
2022-08-22T21:13:19.666Z,18.23
2022-08-22T21:15:56.901Z,18.22
2022-08-22T21:18:48.262Z,18.21
2022-08-22T21:21:27.301Z,18.27
2022-08-22T21:24:01.284Z,18.21
2022-08-22T21:26:39.190Z,18.17
2022-08-22T21:29:14.464Z,18.10
2022-08-22T21:32:04.264Z,17.97
2022-08-22T21:34:40.784Z,17.79
2022-08-22T21:37:08.887Z,17.64
2022-08-22T21:39:41.333Z,17.59
2022-08-22T21:42:21.796Z,17.56
2022-08-22T21:44:57.695Z,17.44
2022-08-22T21:47:30.599Z,17.32
2022-08-22T21:50:18.589Z,17.28
2022-08-22T21:53:12.092Z,17.21
2022-08-22T21:55:47.994Z,17.22
2022-08-22T21:58:35.705Z,17.24
2022-08-22T22:01:30.489Z,17.16
2022-08-22T22:03:59.336Z,17.11
2022-08-22T22:06:26.447Z,17.05
2022-08-22T22:08:52.963Z,17.04
2022-08-22T22:11:19.673Z,16.97
2022-08-22T22:13:46.478Z,16.89
2022-08-22T22:16:13.410Z,16.83
2022-08-22T22:18:40.851Z,16.79
2022-08-22T22:21:08.471Z,16.80
2022-08-22T22:23:38.202Z,16.79
2022-08-22T22:26:05.799Z,16.79
2022-08-22T22:28:39.310Z,16.72
2022-08-22T22:31:06.914Z,16.66
2022-08-22T22:33:37.148Z,16.62
2022-08-22T22:36:10.584Z,16.53
2022-08-22T22:38:38.979Z,16.48
2022-08-22T22:41:05.664Z,16.45
2022-08-22T22:43:32.405Z,16.38
2022-08-22T22:45:59.236Z,16.31
2022-08-22T22:48:25.797Z,16.23
2022-08-22T22:50:53.411Z,16.24
2022-08-22T22:53:21.521Z,16.20
2022-08-22T22:56:00.690Z,16.13
2022-08-22T22:58:28.576Z,16.10
2022-08-22T23:00:56.058Z,16.04
2022-08-22T23:03:23.050Z,15.98
2022-08-22T23:05:49.608Z,15.94
2022-08-22T23:08:16.158Z,15.94
2022-08-22T23:10:42.721Z,15.92
2022-08-22T23:13:09.381Z,15.92
2022-08-22T23:15:36.931Z,15.87
2022-08-22T23:18:03.521Z,15.78
2022-08-22T23:20:30.099Z,15.80
2022-08-22T23:22:56.775Z,15.76
2022-08-22T23:25:23.274Z,15.73
2022-08-22T23:27:52.368Z,15.67
2022-08-22T23:30:19.646Z,15.69
2022-08-22T23:32:46.194Z,15.64
2022-08-22T23:35:12.718Z,15.48
2022-08-22T23:37:39.358Z,15.46
2022-08-22T23:40:09.606Z,15.44
2022-08-22T23:42:36.329Z,15.41
2022-08-22T23:45:03.624Z,15.34
2022-08-22T23:47:30.159Z,15.34
2022-08-22T23:49:56.685Z,15.41
2022-08-22T23:52:23.194Z,15.45
2022-08-22T23:54:54.334Z,15.34
2022-08-22T23:57:27.401Z,15.31
2022-08-22T23:59:57.594Z,15.26
